Terminal Aerodrome Forecast
Issued by NWS

Home | Current Version | Previous Version | Text Only | Print | Product List | Glossary On
Versions: 1 2 3 4 5 6 7 8 9 10 11 12 13 14 15 16 17
230
FTUS46 KMTR 291122
TAFSJC
TAF
KSJC 291122Z 2912/3012 32008KT P6SM OVC012
     FM291800 31006KT P6SM SCT012
     FM292100 30011KT P6SM FEW015
     FM300100 30015G19KT P6SM SCT015
     FM300500 31006KT P6SM OVC015=

USA.gov is the U.S. government's official web portal to all federal, state and local government web resources and services.